createdAt,value
2018-02-15T00:01:22.473Z,22.60
2018-02-15T00:03:50.013Z,20.70
2018-02-15T00:06:17.576Z,21.00
2018-02-15T00:08:45.117Z,21.03
2018-02-15T00:11:12.677Z,21.33
2018-02-15T00:13:40.282Z,21.77
2018-02-15T00:16:07.858Z,21.90
2018-02-15T00:18:35.419Z,20.73
2018-02-15T00:21:03.751Z,20.80
2018-02-15T00:23:31.291Z,22.27
2018-02-15T00:25:59.993Z,21.38
2018-02-15T00:28:27.583Z,20.73
2018-02-15T00:30:55.161Z,20.83
2018-02-15T00:33:22.755Z,22.10
2018-02-15T00:35:50.739Z,20.73
2018-02-15T00:38:19.240Z,22.90
2018-02-15T00:40:46.838Z,21.20
2018-02-15T00:43:14.387Z,21.47
2018-02-15T00:45:42.188Z,22.00
2018-02-15T00:48:10.139Z,20.90
2018-02-15T00:50:38.909Z,18.92
2018-02-15T00:53:06.497Z,21.23
2018-02-15T00:55:34.423Z,20.77
2018-02-15T00:58:02.841Z,21.30
2018-02-15T01:00:32.981Z,21.20
2018-02-15T01:03:00.535Z,23.60
2018-02-15T01:05:28.083Z,21.50
2018-02-15T01:07:56.534Z,21.20
2018-02-15T01:10:24.070Z,21.63
2018-02-15T01:12:51.608Z,20.93
2018-02-15T01:15:19.198Z,23.10
2018-02-15T01:17:46.781Z,21.52
2018-02-15T01:20:14.354Z,21.07
2018-02-15T01:22:42.295Z,22.40
2018-02-15T01:25:09.861Z,22.10
2018-02-15T01:27:37.420Z,21.13
2018-02-15T01:30:04.991Z,22.07
2018-02-15T01:32:32.909Z,22.80
2018-02-15T01:35:01.514Z,24.23
2018-02-15T01:37:29.077Z,22.07
2018-02-15T01:39:56.665Z,22.95
2018-02-15T01:42:24.217Z,22.50
2018-02-15T01:44:51.752Z,23.62
2018-02-15T01:47:19.343Z,23.70
2018-02-15T01:49:58.644Z,21.10
2018-02-15T01:52:26.215Z,21.70
2018-02-15T01:54:54.703Z,22.15
2018-02-15T01:57:22.221Z,23.60
2018-02-15T01:59:49.781Z,22.17
2018-02-15T02:02:17.352Z,22.30
2018-02-15T02:04:44.891Z,22.07
2018-02-15T02:07:12.425Z,23.67
2018-02-15T02:09:40.385Z,22.83
2018-02-15T02:12:08.358Z,21.45
2018-02-15T02:14:36.329Z,23.63
2018-02-15T02:17:04.347Z,23.83
2018-02-15T02:19:31.920Z,21.10
2018-02-15T02:21:59.457Z,23.17
2018-02-15T02:24:27.022Z,23.60
2018-02-15T02:26:54.821Z,23.15
2018-02-15T02:29:22.392Z,24.60
2018-02-15T02:31:51.244Z,22.30
2018-02-15T02:34:18.770Z,23.42
2018-02-15T02:36:46.351Z,22.87
2018-02-15T02:39:13.915Z,22.97
2018-02-15T02:41:41.946Z,23.43
2018-02-15T02:44:09.494Z,22.73
2018-02-15T02:46:37.060Z,23.47
2018-02-15T02:49:04.608Z,24.13
2018-02-15T02:51:32.291Z,22.40
2018-02-15T02:54:00.225Z,22.83
2018-02-15T02:56:27.781Z,23.93
2018-02-15T02:58:55.638Z,25.33
2018-02-15T03:01:23.750Z,22.62
2018-02-15T03:03:52.574Z,23.70
2018-02-15T03:06:20.998Z,22.70
2018-02-15T03:08:49.734Z,23.13
2018-02-15T03:11:17.282Z,21.60
2018-02-15T03:13:44.821Z,21.92
2018-02-15T03:16:12.390Z,22.73
2018-02-15T03:18:40.371Z,22.50
2018-02-15T03:21:08.296Z,22.10
2018-02-15T03:23:35.849Z,22.33
2018-02-15T03:26:04.024Z,22.43
2018-02-15T03:28:31.577Z,21.90
2018-02-15T03:30:59.157Z,20.17
2018-02-15T03:33:26.883Z,23.60
2018-02-15T03:35:54.466Z,22.07
2018-02-15T03:38:25.427Z,22.20
2018-02-15T03:40:52.967Z,22.07
2018-02-15T03:43:20.507Z,22.70
2018-02-15T03:45:48.052Z,19.83
2018-02-15T03:48:15.643Z,23.25
2018-02-15T03:50:43.194Z,21.07
2018-02-15T03:53:12.028Z,21.70
2018-02-15T03:55:42.108Z,23.20
2018-02-15T03:58:09.645Z,22.83
2018-02-15T04:00:37.248Z,22.30
2018-02-15T04:03:04.838Z,20.77
2018-02-15T04:05:32.402Z,22.13
2018-02-15T04:07:59.951Z,23.17
2018-02-15T04:10:28.987Z,20.00
2018-02-15T04:12:56.616Z,19.85
2018-02-15T04:15:24.176Z,22.60
2018-02-15T04:17:51.768Z,23.38
2018-02-15T04:20:19.306Z,20.27
2018-02-15T04:22:48.993Z,22.50
2018-02-15T04:25:17.090Z,21.47
2018-02-15T04:27:44.654Z,21.00
2018-02-15T04:30:12.222Z,21.63
2018-02-15T04:32:44.385Z,19.87
2018-02-15T04:35:12.868Z,20.90
2018-02-15T04:37:40.859Z,20.12
2018-02-15T04:40:08.427Z,21.70
2018-02-15T04:42:35.968Z,19.97
2018-02-15T04:45:03.569Z,19.87
2018-02-15T04:47:36.293Z,20.57
2018-02-15T04:50:04.067Z,20.87
2018-02-15T04:52:31.638Z,20.73
2018-02-15T04:54:59.157Z,20.37
2018-02-15T04:57:27.172Z,20.90
2018-02-15T04:59:54.728Z,21.07
2018-02-15T05:02:22.339Z,20.00
2018-02-15T05:04:49.891Z,21.70
2018-02-15T05:07:17.861Z,18.93
2018-02-15T05:09:45.441Z,23.17
2018-02-15T05:12:12.989Z,20.40
2018-02-15T05:14:40.549Z,19.87
2018-02-15T05:17:08.130Z,19.00
2018-02-15T05:19:35.692Z,20.70
2018-02-15T05:22:03.253Z,19.40
2018-02-15T05:24:31.621Z,20.20
2018-02-15T05:26:59.202Z,19.80
2018-02-15T05:29:27.067Z,21.20
2018-02-15T05:31:54.650Z,19.48
2018-02-15T05:34:22.235Z,20.17
2018-02-15T05:36:50.216Z,18.80
2018-02-15T05:39:17.804Z,20.88
2018-02-15T05:41:45.377Z,19.42
2018-02-15T05:44:12.949Z,20.37
2018-02-15T05:46:40.508Z,19.33
2018-02-15T05:49:08.062Z,18.62
2018-02-15T05:51:35.864Z,19.48
2018-02-15T05:54:04.906Z,19.67
2018-02-15T05:56:33.179Z,17.67
2018-02-15T05:59:00.765Z,19.90
2018-02-15T06:01:28.448Z,20.27
2018-02-15T06:03:56.875Z,19.37
2018-02-15T06:06:24.433Z,19.60
2018-02-15T06:08:53.042Z,18.10
2018-02-15T06:11:20.593Z,19.98
2018-02-15T06:13:48.132Z,21.60
2018-02-15T06:16:16.139Z,19.12
2018-02-15T06:18:43.704Z,19.60
2018-02-15T06:21:11.249Z,17.30
2018-02-15T06:23:38.863Z,20.98
2018-02-15T06:26:06.835Z,18.47
2018-02-15T06:28:34.745Z,18.50
2018-02-15T06:31:02.952Z,18.00
2018-02-15T06:33:30.920Z,18.53
2018-02-15T06:35:59.196Z,17.30
2018-02-15T06:38:26.748Z,17.10
2018-02-15T06:40:54.336Z,17.57
2018-02-15T06:43:22.293Z,16.40
2018-02-15T06:45:50.233Z,18.13
2018-02-15T06:48:18.272Z,17.30
2018-02-15T06:50:45.821Z,17.83
2018-02-15T06:53:13.378Z,17.55
2018-02-15T06:55:40.936Z,17.50
2018-02-15T06:58:08.514Z,17.47
2018-02-15T07:00:36.747Z,17.00
2018-02-15T07:03:04.688Z,16.73
2018-02-15T07:05:32.412Z,17.60
2018-02-15T07:07:59.965Z,18.07
2018-02-15T07:10:27.544Z,15.95
2018-02-15T07:12:55.095Z,17.60
2018-02-15T07:15:22.681Z,16.73
2018-02-15T07:17:50.229Z,16.30
2018-02-15T07:20:17.807Z,17.55
2018-02-15T07:22:45.360Z,15.90
2018-02-15T07:25:12.965Z,16.43
2018-02-15T07:27:40.503Z,17.50
2018-02-15T07:30:08.029Z,17.37
2018-02-15T07:32:35.609Z,16.10
2018-02-15T07:35:03.154Z,14.97
2018-02-15T07:37:30.710Z,16.50
2018-02-15T07:39:58.264Z,16.10
2018-02-15T07:42:26.371Z,14.80
2018-02-15T07:44:53.934Z,17.50
2018-02-15T07:47:21.887Z,16.00
2018-02-15T07:49:49.441Z,15.83
2018-02-15T07:52:17.062Z,15.77
2018-02-15T07:54:44.637Z,16.37
2018-02-15T07:57:12.199Z,15.30
2018-02-15T07:59:40.480Z,14.40
2018-02-15T08:02:08.057Z,14.30
2018-02-15T08:04:35.715Z,15.00
2018-02-15T08:07:03.246Z,14.30
2018-02-15T08:09:30.802Z,14.93
2018-02-15T08:11:58.373Z,13.80
2018-02-15T08:14:25.936Z,14.07
2018-02-15T08:16:53.512Z,14.20
2018-02-15T08:19:21.708Z,14.77
2018-02-15T08:21:49.257Z,15.67
2018-02-15T08:24:16.818Z,14.33
2018-02-15T08:26:44.363Z,14.23
2018-02-15T08:29:11.951Z,13.17
2018-02-15T08:31:40.346Z,13.10
2018-02-15T08:34:09.764Z,13.60
2018-02-15T08:36:37.325Z,13.50
2018-02-15T08:39:04.864Z,12.60
2018-02-15T08:41:33.882Z,11.70
2018-02-15T08:44:01.448Z,12.33
2018-02-15T08:46:28.993Z,11.90
2018-02-15T08:49:00.395Z,12.60
2018-02-15T08:51:28.125Z,13.40
2018-02-15T08:53:55.733Z,13.73
2018-02-15T08:56:24.336Z,12.63
2018-02-15T08:58:52.360Z,14.27
2018-02-15T09:01:20.073Z,13.70
2018-02-15T09:03:48.056Z,14.30
2018-02-15T09:06:16.674Z,13.77
2018-02-15T09:08:44.303Z,14.23
2018-02-15T09:11:12.113Z,14.00
2018-02-15T09:13:40.207Z,15.30
2018-02-15T09:16:09.210Z,13.50
2018-02-15T09:18:37.162Z,17.27
2018-02-15T09:21:05.086Z,15.00
2018-02-15T09:23:32.993Z,16.10
2018-02-15T09:26:00.646Z,13.90
2018-02-15T09:28:28.194Z,16.00
2018-02-15T09:30:55.841Z,15.82
2018-02-15T09:33:23.946Z,15.10
2018-02-15T09:35:51.532Z,15.80
2018-02-15T09:38:19.137Z,16.10
2018-02-15T09:40:46.692Z,15.10
2018-02-15T09:43:14.290Z,14.60
2018-02-15T09:45:41.822Z,14.60
2018-02-15T09:48:09.404Z,13.60
2018-02-15T09:50:37.141Z,14.10
2018-02-15T09:53:04.781Z,14.60
2018-02-15T09:55:32.368Z,15.10
2018-02-15T09:57:59.916Z,14.35
2018-02-15T10:00:27.517Z,15.50
2018-02-15T10:02:55.460Z,14.13
2018-02-15T10:05:23.694Z,15.30
2018-02-15T10:07:51.294Z,14.50
2018-02-15T10:10:18.865Z,13.40
2018-02-15T10:12:46.447Z,15.60
2018-02-15T10:15:14.429Z,15.60
2018-02-15T10:17:43.276Z,15.10
2018-02-15T10:20:10.902Z,14.97
2018-02-15T10:22:38.444Z,14.33
2018-02-15T10:25:06.041Z,14.07
2018-02-15T10:27:33.675Z,14.93
2018-02-15T10:30:01.217Z,14.90
2018-02-15T10:32:29.153Z,14.73
2018-02-15T10:34:56.713Z,13.10
2018-02-15T10:37:25.018Z,12.93
2018-02-15T10:59:54.140Z,15.18
2018-02-15T11:02:22.989Z,15.00
2018-02-15T11:08:04.365Z,14.15
2018-02-15T11:10:32.585Z,12.30
2018-02-15T11:13:01.893Z,14.50
2018-02-15T11:15:29.935Z,13.85
2018-02-15T11:17:57.489Z,14.03
2018-02-15T11:20:25.208Z,13.30
2018-02-15T11:22:53.718Z,13.60
2018-02-15T11:25:21.289Z,14.70
2018-02-15T11:27:48.870Z,15.00
2018-02-15T11:30:16.427Z,13.75
2018-02-15T11:32:44.657Z,13.50
2018-02-15T11:35:12.204Z,14.70
2018-02-15T11:37:40.161Z,12.87
2018-02-15T11:40:09.273Z,13.77
2018-02-15T11:42:37.708Z,15.13
2018-02-15T11:45:06.550Z,13.60
2018-02-15T11:47:34.116Z,12.50
2018-02-15T11:50:01.665Z,13.50
2018-02-15T11:52:29.609Z,15.27
2018-02-15T11:54:58.665Z,13.73
2018-02-15T11:57:27.532Z,13.83
2018-02-15T11:59:55.085Z,14.47
2018-02-15T12:02:22.661Z,14.50
2018-02-15T12:04:50.230Z,13.10
2018-02-15T12:07:17.936Z,13.80
2018-02-15T12:09:46.686Z,12.27
2018-02-15T12:12:14.237Z,12.67
2018-02-15T12:14:42.524Z,12.47
2018-02-15T12:17:10.317Z,13.07
2018-02-15T12:19:38.028Z,13.00
2018-02-15T12:22:07.031Z,12.57
2018-02-15T12:24:35.354Z,11.70
2018-02-15T12:27:03.275Z,12.13
2018-02-15T12:29:31.721Z,13.50
2018-02-15T12:31:59.703Z,12.13
2018-02-15T12:34:28.161Z,13.90
2018-02-15T12:36:56.309Z,13.40
2018-02-15T12:39:24.057Z,12.50
2018-02-15T12:41:51.837Z,12.70
2018-02-15T12:44:19.594Z,13.90
2018-02-15T12:46:48.833Z,12.57
2018-02-15T12:49:17.567Z,12.83
2018-02-15T12:51:45.769Z,13.70
2018-02-15T12:54:13.401Z,14.57
2018-02-15T12:56:43.249Z,13.97
2018-02-15T12:59:11.061Z,13.17
2018-02-15T13:01:38.606Z,13.60
2018-02-15T13:04:07.014Z,14.10
2018-02-15T13:06:34.651Z,12.83
2018-02-15T13:09:02.205Z,14.05
2018-02-15T13:11:30.132Z,13.90
2018-02-15T13:13:57.726Z,14.47
2018-02-15T13:19:43.584Z,13.93
2018-02-15T13:22:22.938Z,14.27
2018-02-15T13:24:51.335Z,14.18
2018-02-15T13:27:18.930Z,14.13
2018-02-15T13:29:46.679Z,14.95
2018-02-15T13:32:17.107Z,14.53
2018-02-15T13:34:44.779Z,15.17
2018-02-15T13:37:13.057Z,16.17
2018-02-15T13:39:40.644Z,16.90
2018-02-15T13:42:08.379Z,16.83
2018-02-15T13:44:36.107Z,14.90
2018-02-15T13:47:03.637Z,16.07
2018-02-15T13:49:32.154Z,14.13
2018-02-15T13:51:59.720Z,15.03
2018-02-15T13:54:27.287Z,17.20
2018-02-15T13:56:55.276Z,16.13
2018-02-15T13:59:22.853Z,15.30
2018-02-15T14:01:50.373Z,16.77
2018-02-15T14:04:17.931Z,15.50
2018-02-15T14:06:45.923Z,17.67
2018-02-15T14:09:14.378Z,16.80
2018-02-15T14:11:43.019Z,15.60
2018-02-15T14:14:10.555Z,18.30
2018-02-15T14:16:38.096Z,17.07
2018-02-15T14:19:06.600Z,17.70
2018-02-15T14:21:34.145Z,17.03
2018-02-15T14:24:01.695Z,18.73
2018-02-15T14:26:29.230Z,18.50
2018-02-15T14:28:56.808Z,18.10
2018-02-15T14:31:24.351Z,17.80
2018-02-15T14:33:52.282Z,16.90
2018-02-15T14:36:19.844Z,17.43
2018-02-15T14:38:47.422Z,18.50
2018-02-15T14:41:14.965Z,20.00
2018-02-15T14:43:42.530Z,17.83
2018-02-15T14:46:10.380Z,18.67
2018-02-15T14:48:37.948Z,19.00
2018-02-15T14:51:05.523Z,16.93
2018-02-15T14:53:33.063Z,19.53
2018-02-15T14:56:00.659Z,17.47
2018-02-15T14:58:28.209Z,17.30
2018-02-15T15:00:55.728Z,21.10
2018-02-15T15:03:23.475Z,18.40
2018-02-15T15:05:51.059Z,16.87
2018-02-15T15:08:19.473Z,20.53
2018-02-15T15:10:47.070Z,18.40
2018-02-15T15:13:14.603Z,17.80
2018-02-15T15:15:42.544Z,19.30
2018-02-15T15:18:10.121Z,20.03
2018-02-15T15:20:38.913Z,20.45
2018-02-15T15:23:06.500Z,19.08
2018-02-15T15:25:34.131Z,21.42
2018-02-15T15:28:01.778Z,20.60
2018-02-15T15:30:29.362Z,19.80
2018-02-15T15:32:57.322Z,19.98
2018-02-15T15:35:24.853Z,20.20
2018-02-15T15:37:52.409Z,20.80
2018-02-15T15:40:19.990Z,21.77
2018-02-15T15:42:47.574Z,26.10
2018-02-15T15:45:15.762Z,20.83
2018-02-15T15:47:43.457Z,24.93
2018-02-15T15:50:11.055Z,23.15
2018-02-15T15:52:39.541Z,22.37
2018-02-15T15:55:07.150Z,26.60
2018-02-15T15:57:34.730Z,22.13
2018-02-15T16:00:02.303Z,24.37
2018-02-15T16:02:30.041Z,21.70
2018-02-15T16:04:57.691Z,21.75
2018-02-15T16:07:25.250Z,19.77
2018-02-15T16:09:52.900Z,22.03
2018-02-15T16:12:20.620Z,21.07
2018-02-15T16:14:48.198Z,20.48
2018-02-15T16:17:16.615Z,22.97
2018-02-15T16:19:44.192Z,23.83
2018-02-15T16:22:11.807Z,20.07
2018-02-15T16:24:39.756Z,23.30
2018-02-15T16:27:07.357Z,21.93
2018-02-15T16:29:34.955Z,22.33
2018-02-15T16:32:02.986Z,22.93
2018-02-15T16:34:30.622Z,21.45
2018-02-15T16:36:58.210Z,22.98
2018-02-15T16:39:25.805Z,21.13
2018-02-15T16:41:53.409Z,22.70
2018-02-15T16:44:22.309Z,23.07
2018-02-15T16:46:49.900Z,24.17
2018-02-15T16:49:17.491Z,25.03
2018-02-15T16:51:45.217Z,23.80
2018-02-15T16:54:12.810Z,23.15
2018-02-15T16:56:41.307Z,30.50
2018-02-15T16:59:10.162Z,23.93
2018-02-15T17:01:37.747Z,28.77
2018-02-15T17:04:06.118Z,29.93
2018-02-15T17:06:33.774Z,29.52
2018-02-15T17:09:04.262Z,27.40
2018-02-15T17:11:35.621Z,27.42
2018-02-15T17:14:03.241Z,26.40
2018-02-15T17:16:34.485Z,26.07
2018-02-15T17:19:07.525Z,26.80
2018-02-15T17:21:38.566Z,25.92
2018-02-15T17:24:11.707Z,26.92
2018-02-15T17:26:41.241Z,27.10
2018-02-15T17:29:10.200Z,30.00
2018-02-15T17:31:40.747Z,27.50
2018-02-15T17:34:12.075Z,25.17
2018-02-15T17:36:43.927Z,24.27
2018-02-15T17:39:16.839Z,24.17
2018-02-15T17:41:48.305Z,22.80
2018-02-15T17:44:18.843Z,23.60
2018-02-15T17:46:50.513Z,23.93
2018-02-15T17:49:22.334Z,24.33
2018-02-15T17:51:54.752Z,22.60
2018-02-15T17:54:25.392Z,22.50
2018-02-15T17:56:56.198Z,24.20
2018-02-15T17:59:24.414Z,26.27
2018-02-15T18:01:54.123Z,23.77
2018-02-15T18:04:23.450Z,24.53
2018-02-15T18:06:54.557Z,25.43
2018-02-15T18:09:23.616Z,26.17
2018-02-15T18:11:54.005Z,25.30
2018-02-15T18:14:22.984Z,27.30
2018-02-15T18:16:53.757Z,25.93
2018-02-15T18:19:23.256Z,27.27
2018-02-15T18:21:53.463Z,28.83
2018-02-15T18:24:23.809Z,26.98
2018-02-15T18:26:53.201Z,27.07
2018-02-15T18:29:24.874Z,27.58
2018-02-15T18:31:55.592Z,25.10
2018-02-15T18:34:25.519Z,26.77
2018-02-15T18:36:55.132Z,27.37
2018-02-15T18:39:24.022Z,26.33
2018-02-15T18:41:54.094Z,26.33
2018-02-15T18:44:24.970Z,26.30
2018-02-15T18:46:53.630Z,25.53
2018-02-15T18:49:23.222Z,25.67
2018-02-15T18:51:54.020Z,27.30
2018-02-15T18:54:23.159Z,26.67
2018-02-15T18:56:53.426Z,26.90
2018-02-15T18:59:21.167Z,28.60
2018-02-15T19:01:49.878Z,27.60
2018-02-15T19:04:17.677Z,29.23
2018-02-15T19:06:46.690Z,28.23
2018-02-15T19:09:14.368Z,30.57
2018-02-15T19:11:41.933Z,29.13
2018-02-15T19:14:09.734Z,29.98
2018-02-15T19:16:38.195Z,27.93
2018-02-15T19:19:06.318Z,30.40
2018-02-15T19:21:35.114Z,28.53
2018-02-15T19:24:03.739Z,28.37
2018-02-15T19:26:32.839Z,28.43
2018-02-15T19:29:02.580Z,30.67
2018-02-15T19:31:30.202Z,28.30
2018-02-15T19:33:58.708Z,26.37
2018-02-15T19:36:26.452Z,27.50
2018-02-15T19:38:54.765Z,29.10
2018-02-15T19:41:23.154Z,28.40
2018-02-15T19:43:50.701Z,30.50
2018-02-15T19:46:18.703Z,27.20
2018-02-15T19:48:46.651Z,29.30
2018-02-15T19:51:14.233Z,28.40
2018-02-15T19:53:42.202Z,29.40
2018-02-15T19:56:11.274Z,28.77
2018-02-15T19:58:38.850Z,28.07
2018-02-15T20:01:06.382Z,27.33
2018-02-15T20:03:34.716Z,30.80
2018-02-15T20:06:04.323Z,30.90
2018-02-15T20:08:32.149Z,30.15
2018-02-15T20:11:03.051Z,32.50
2018-02-15T20:13:32.843Z,29.40
2018-02-15T20:16:01.559Z,32.53
2018-02-15T20:18:30.523Z,34.60
2018-02-15T20:20:59.123Z,38.40
2018-02-15T20:23:26.780Z,32.07
2018-02-15T20:25:59.986Z,32.90
2018-02-15T20:28:29.165Z,35.72
2018-02-15T20:30:57.040Z,34.50
2018-02-15T20:33:26.674Z,41.33
2018-02-15T20:35:54.759Z,41.30
2018-02-15T20:38:28.793Z,44.17
2018-02-15T20:40:56.635Z,37.83
2018-02-15T20:43:24.977Z,35.97
2018-02-15T20:45:55.728Z,39.25
2018-02-15T20:48:26.308Z,38.97
2018-02-15T20:51:02.628Z,37.30
2018-02-15T20:53:38.180Z,31.87
2018-02-15T20:56:07.741Z,42.03
2018-02-15T20:58:38.833Z,35.43
2018-02-15T21:01:08.555Z,34.30
2018-02-15T21:03:38.062Z,39.13
2018-02-15T21:06:06.670Z,30.17
2018-02-15T21:08:35.806Z,33.27
2018-02-15T21:11:05.517Z,39.25
2018-02-15T21:13:34.762Z,43.40
2018-02-15T21:16:03.950Z,38.22
2018-02-15T21:18:36.240Z,35.28
2018-02-15T21:21:04.567Z,39.53
2018-02-15T21:23:34.633Z,36.00
2018-02-15T21:26:04.756Z,37.07
2018-02-15T21:28:33.734Z,38.67
2018-02-15T21:31:04.292Z,35.93
2018-02-15T21:33:33.390Z,39.50
2018-02-15T21:36:01.337Z,34.93
2018-02-15T21:38:32.124Z,35.72
2018-02-15T21:41:00.407Z,41.27
2018-02-15T21:43:27.982Z,43.77
2018-02-15T21:45:55.669Z,34.30
2018-02-15T21:48:23.590Z,40.50
2018-02-15T21:50:51.192Z,43.83
2018-02-15T21:53:19.161Z,49.13
2018-02-15T21:55:47.209Z,35.60
2018-02-15T21:58:14.774Z,36.63
2018-02-15T22:00:45.808Z,34.37
2018-02-15T22:03:14.830Z,44.20
2018-02-15T22:05:42.680Z,37.80
2018-02-15T22:08:12.790Z,42.10
2018-02-15T22:10:41.344Z,39.60
2018-02-15T22:13:10.133Z,50.28
2018-02-15T22:15:39.858Z,33.60
2018-02-15T22:18:10.071Z,47.97
2018-02-15T22:20:38.764Z,42.97
2018-02-15T22:23:06.578Z,31.20
2018-02-15T22:25:34.555Z,35.73
2018-02-15T22:28:03.353Z,37.60
2018-02-15T22:30:31.746Z,40.37
2018-02-15T22:33:00.318Z,42.53
2018-02-15T22:35:28.521Z,34.90
2018-02-15T22:37:57.834Z,35.00
2018-02-15T22:40:25.378Z,36.63
2018-02-15T22:42:53.166Z,35.33
2018-02-15T22:45:21.389Z,35.50
2018-02-15T22:47:48.973Z,34.30
2018-02-15T22:50:16.524Z,36.50
2018-02-15T22:52:44.064Z,33.80
2018-02-15T22:55:11.625Z,34.87
2018-02-15T22:57:39.436Z,33.53
2018-02-15T23:00:07.143Z,34.27
2018-02-15T23:02:34.711Z,33.20
2018-02-15T23:05:02.314Z,31.53
2018-02-15T23:07:30.019Z,33.42
2018-02-15T23:09:57.831Z,36.90
2018-02-15T23:12:25.472Z,32.10
2018-02-15T23:14:56.670Z,34.97
2018-02-15T23:17:24.752Z,33.90
2018-02-15T23:19:56.531Z,34.77
2018-02-15T23:22:25.009Z,33.73
2018-02-15T23:24:53.456Z,34.95
2018-02-15T23:27:21.899Z,33.97
2018-02-15T23:29:49.654Z,35.23
2018-02-15T23:32:17.994Z,31.93
2018-02-15T23:34:45.661Z,33.27
2018-02-15T23:37:14.853Z,33.57
2018-02-15T23:39:43.970Z,33.33
2018-02-15T23:42:12.182Z,37.33
2018-02-15T23:44:40.564Z,43.60
2018-02-15T23:47:08.316Z,51.10
2018-02-15T23:49:36.941Z,41.33
2018-02-15T23:52:04.524Z,44.42
2018-02-15T23:54:32.252Z,33.93
2018-02-15T23:56:59.803Z,32.73
2018-02-15T23:59:27.600Z,34.40
